sensor_id;sensor_type;location;lat;lon;timestamp;temperature;humidity
3344;DHT22;1685;53.104;8.228;2023-03-04T00:02:16;5.20;99.90
3344;DHT22;1685;53.104;8.228;2023-03-04T00:04:43;5.50;99.90
3344;DHT22;1685;53.104;8.228;2023-03-04T00:07:10;5.60;99.90
3344;DHT22;1685;53.104;8.228;2023-03-04T00:09:37;5.60;99.90
3344;DHT22;1685;53.104;8.228;2023-03-04T00:12:04;5.50;99.90
3344;DHT22;1685;53.104;8.228;2023-03-04T00:14:32;5.50;99.90
3344;DHT22;1685;53.104;8.228;2023-03-04T00:17:01;5.50;99.90
3344;DHT22;1685;53.104;8.228;2023-03-04T00:19:28;5.40;99.90
3344;DHT22;1685;53.104;8.228;2023-03-04T00:24:22;5.60;99.90
3344;DHT22;1685;53.104;8.228;2023-03-04T00:26:49;5.50;99.90
3344;DHT22;1685;53.104;8.228;2023-03-04T00:29:16;5.50;99.90
3344;DHT22;1685;53.104;8.228;2023-03-04T00:34:11;5.60;99.90
3344;DHT22;1685;53.104;8.228;2023-03-04T00:36:38;5.50;99.90
3344;DHT22;1685;53.104;8.228;2023-03-04T00:39:05;5.60;99.90
3344;DHT22;1685;53.104;8.228;2023-03-04T00:51:21;5.80;99.90
3344;DHT22;1685;53.104;8.228;2023-03-04T01:06:06;5.60;99.90
3344;DHT22;1685;53.104;8.228;2023-03-04T01:08:34;5.40;99.90
3344;DHT22;1685;53.104;8.228;2023-03-04T01:13:28;5.80;99.90
3344;DHT22;1685;53.104;8.228;2023-03-04T01:20:49;5.80;99.90
3344;DHT22;1685;53.104;8.228;2023-03-04T01:23:16;5.70;99.90
3344;DHT22;1685;53.104;8.228;2023-03-04T01:25:44;5.60;99.90
3344;DHT22;1685;53.104;8.228;2023-03-04T01:33:04;5.60;99.90
3344;DHT22;1685;53.104;8.228;2023-03-04T01:37:58;5.70;99.90
3344;DHT22;1685;53.104;8.228;2023-03-04T01:40:25;5.70;99.90
3344;DHT22;1685;53.104;8.228;2023-03-04T01:42:53;5.60;99.90
3344;DHT22;1685;53.104;8.228;2023-03-04T01:45:20;5.70;99.90
3344;DHT22;1685;53.104;8.228;2023-03-04T01:47:48;5.80;99.90
3344;DHT22;1685;53.104;8.228;2023-03-04T01:55:15;5.50;99.90
3344;DHT22;1685;53.104;8.228;2023-03-04T01:57:45;5.60;99.90
3344;DHT22;1685;53.104;8.228;2023-03-04T02:00:23;5.60;99.90
3344;DHT22;1685;53.104;8.228;2023-03-04T02:02:52;5.80;99.90
3344;DHT22;1685;53.104;8.228;2023-03-04T02:05:21;5.70;99.90
3344;DHT22;1685;53.104;8.228;2023-03-04T02:07:48;5.60;99.90
3344;DHT22;1685;53.104;8.228;2023-03-04T02:10:15;5.70;99.90
3344;DHT22;1685;53.104;8.228;2023-03-04T02:12:42;5.70;99.90
3344;DHT22;1685;53.104;8.228;2023-03-04T02:17:38;5.30;99.90
3344;DHT22;1685;53.104;8.228;2023-03-04T02:20:14;5.60;99.90
3344;DHT22;1685;53.104;8.228;2023-03-04T02:22:46;5.50;99.90
3344;DHT22;1685;53.104;8.228;2023-03-04T02:25:20;5.50;99.90
3344;DHT22;1685;53.104;8.228;2023-03-04T02:27:49;5.60;99.90
3344;DHT22;1685;53.104;8.228;2023-03-04T02:30:20;5.70;99.90
3344;DHT22;1685;53.104;8.228;2023-03-04T02:32:47;5.50;99.90
3344;DHT22;1685;53.104;8.228;2023-03-04T02:35:15;5.40;99.90
3344;DHT22;1685;53.104;8.228;2023-03-04T02:37:43;5.50;99.90
3344;DHT22;1685;53.104;8.228;2023-03-04T02:40:14;5.80;99.90
3344;DHT22;1685;53.104;8.228;2023-03-04T02:42:43;5.70;99.90
3344;DHT22;1685;53.104;8.228;2023-03-04T02:45:38;5.50;99.90
3344;DHT22;1685;53.104;8.228;2023-03-04T02:48:06;5.60;99.90
3344;DHT22;1685;53.104;8.228;2023-03-04T02:50:35;5.60;99.90
3344;DHT22;1685;53.104;8.228;2023-03-04T02:53:03;5.60;99.90
3344;DHT22;1685;53.104;8.228;2023-03-04T02:55:30;5.90;99.90
3344;DHT22;1685;53.104;8.228;2023-03-04T02:57:56;5.60;99.90
3344;DHT22;1685;53.104;8.228;2023-03-04T03:00:24;5.60;99.90
3344;DHT22;1685;53.104;8.228;2023-03-04T03:02:52;5.60;99.90
3344;DHT22;1685;53.104;8.228;2023-03-04T03:05:19;5.90;99.90
3344;DHT22;1685;53.104;8.228;2023-03-04T03:07:46;5.60;99.90
3344;DHT22;1685;53.104;8.228;2023-03-04T03:10:12;5.60;99.90
3344;DHT22;1685;53.104;8.228;2023-03-04T03:12:39;5.60;99.90
3344;DHT22;1685;53.104;8.228;2023-03-04T03:15:07;5.60;99.90
3344;DHT22;1685;53.104;8.228;2023-03-04T03:17:34;5.50;99.90
3344;DHT22;1685;53.104;8.228;2023-03-04T03:20:02;5.60;99.90
3344;DHT22;1685;53.104;8.228;2023-03-04T03:24:56;5.40;99.90
3344;DHT22;1685;53.104;8.228;2023-03-04T03:27:23;5.20;99.90
3344;DHT22;1685;53.104;8.228;2023-03-04T03:32:16;5.50;99.90
3344;DHT22;1685;53.104;8.228;2023-03-04T03:34:43;5.50;99.90
3344;DHT22;1685;53.104;8.228;2023-03-04T03:37:11;5.40;99.90
3344;DHT22;1685;53.104;8.228;2023-03-04T03:39:38;5.50;99.90
3344;DHT22;1685;53.104;8.228;2023-03-04T03:42:05;5.60;99.90
3344;DHT22;1685;53.104;8.228;2023-03-04T03:44:31;5.40;99.90
3344;DHT22;1685;53.104;8.228;2023-03-04T03:46:58;5.40;99.90
3344;DHT22;1685;53.104;8.228;2023-03-04T03:49:25;5.50;99.90
3344;DHT22;1685;53.104;8.228;2023-03-04T03:51:51;5.40;99.90
3344;DHT22;1685;53.104;8.228;2023-03-04T03:54:20;5.40;99.90
3344;DHT22;1685;53.104;8.228;2023-03-04T03:56:46;5.40;99.90
3344;DHT22;1685;53.104;8.228;2023-03-04T03:59:13;5.50;99.90
3344;DHT22;1685;53.104;8.228;2023-03-04T04:01:40;5.50;99.90
3344;DHT22;1685;53.104;8.228;2023-03-04T04:04:06;5.40;99.90
3344;DHT22;1685;53.104;8.228;2023-03-04T04:09:00;5.50;99.90
3344;DHT22;1685;53.104;8.228;2023-03-04T04:11:28;5.40;99.90
3344;DHT22;1685;53.104;8.228;2023-03-04T04:13:55;5.40;99.90
3344;DHT22;1685;53.104;8.228;2023-03-04T04:16:22;5.30;99.90
3344;DHT22;1685;53.104;8.228;2023-03-04T04:18:48;5.50;99.90
3344;DHT22;1685;53.104;8.228;2023-03-04T04:21:15;5.90;99.90
3344;DHT22;1685;53.104;8.228;2023-03-04T04:26:09;5.50;99.90
3344;DHT22;1685;53.104;8.228;2023-03-04T04:28:37;5.30;99.90
3344;DHT22;1685;53.104;8.228;2023-03-04T04:31:06;5.30;99.90
3344;DHT22;1685;53.104;8.228;2023-03-04T04:35:59;5.10;99.90
3344;DHT22;1685;53.104;8.228;2023-03-04T04:40:56;5.20;99.90
3344;DHT22;1685;53.104;8.228;2023-03-04T04:43:23;5.40;99.90
3344;DHT22;1685;53.104;8.228;2023-03-04T04:45:51;5.30;99.90
3344;DHT22;1685;53.104;8.228;2023-03-04T04:48:18;5.30;99.90
3344;DHT22;1685;53.104;8.228;2023-03-04T04:50:45;5.20;99.90
3344;DHT22;1685;53.104;8.228;2023-03-04T04:53:12;5.40;99.90
3344;DHT22;1685;53.104;8.228;2023-03-04T04:55:39;5.30;99.90
3344;DHT22;1685;53.104;8.228;2023-03-04T04:58:06;5.20;99.90
3344;DHT22;1685;53.104;8.228;2023-03-04T05:00:33;5.40;99.90
3344;DHT22;1685;53.104;8.228;2023-03-04T05:03:01;5.20;99.90
3344;DHT22;1685;53.104;8.228;2023-03-04T05:12:48;5.30;99.90
3344;DHT22;1685;53.104;8.228;2023-03-04T05:15:15;5.10;99.90
3344;DHT22;1685;53.104;8.228;2023-03-04T05:17:42;5.20;99.90
3344;DHT22;1685;53.104;8.228;2023-03-04T05:20:11;5.00;99.90
3344;DHT22;1685;53.104;8.228;2023-03-04T05:22:37;5.10;99.90
3344;DHT22;1685;53.104;8.228;2023-03-04T05:25:04;5.10;99.90
3344;DHT22;1685;53.104;8.228;2023-03-04T05:27:32;5.10;99.90
3344;DHT22;1685;53.104;8.228;2023-03-04T05:34:52;5.20;99.90
3344;DHT22;1685;53.104;8.228;2023-03-04T05:37:21;5.20;99.90
3344;DHT22;1685;53.104;8.228;2023-03-04T05:47:08;4.90;99.90
3344;DHT22;1685;53.104;8.228;2023-03-04T05:52:02;4.90;99.90
3344;DHT22;1685;53.104;8.228;2023-03-04T05:54:30;4.90;99.90
3344;DHT22;1685;53.104;8.228;2023-03-04T05:56:57;5.00;99.90
3344;DHT22;1685;53.104;8.228;2023-03-04T05:59:24;4.90;99.90
3344;DHT22;1685;53.104;8.228;2023-03-04T06:09:12;5.10;99.90
3344;DHT22;1685;53.104;8.228;2023-03-04T06:11:40;5.10;99.90
3344;DHT22;1685;53.104;8.228;2023-03-04T06:14:07;4.90;99.90
3344;DHT22;1685;53.104;8.228;2023-03-04T06:19:00;4.90;99.90
3344;DHT22;1685;53.104;8.228;2023-03-04T06:21:27;5.00;99.90
3344;DHT22;1685;53.104;8.228;2023-03-04T06:23:54;5.10;99.90
3344;DHT22;1685;53.104;8.228;2023-03-04T06:28:49;4.70;99.90
3344;DHT22;1685;53.104;8.228;2023-03-04T06:33:43;5.10;99.90
3344;DHT22;1685;53.104;8.228;2023-03-04T06:36:10;5.00;99.90
3344;DHT22;1685;53.104;8.228;2023-03-04T06:38:37;5.00;99.90
3344;DHT22;1685;53.104;8.228;2023-03-04T06:41:07;4.90;99.90
3344;DHT22;1685;53.104;8.228;2023-03-04T06:46:03;5.00;99.90
3344;DHT22;1685;53.104;8.228;2023-03-04T06:48:30;5.20;99.90
3344;DHT22;1685;53.104;8.228;2023-03-04T06:50:56;5.10;99.90
3344;DHT22;1685;53.104;8.228;2023-03-04T06:53:23;5.20;99.90
3344;DHT22;1685;53.104;8.228;2023-03-04T06:55:50;5.00;99.90
3344;DHT22;1685;53.104;8.228;2023-03-04T06:58:16;5.10;99.90
3344;DHT22;1685;53.104;8.228;2023-03-04T07:00:43;5.30;99.90
3344;DHT22;1685;53.104;8.228;2023-03-04T07:03:11;5.30;99.90
3344;DHT22;1685;53.104;8.228;2023-03-04T07:05:38;5.30;99.90
3344;DHT22;1685;53.104;8.228;2023-03-04T07:08:05;5.10;99.90
3344;DHT22;1685;53.104;8.228;2023-03-04T07:10:32;5.40;99.90
3344;DHT22;1685;53.104;8.228;2023-03-04T07:13:00;5.40;99.90
3344;DHT22;1685;53.104;8.228;2023-03-04T07:15:27;5.40;99.90
3344;DHT22;1685;53.104;8.228;2023-03-04T07:20:22;5.40;99.90
3344;DHT22;1685;53.104;8.228;2023-03-04T07:22:49;5.40;99.90
3344;DHT22;1685;53.104;8.228;2023-03-04T07:25:15;5.60;99.90
3344;DHT22;1685;53.104;8.228;2023-03-04T07:27:43;5.30;99.90
3344;DHT22;1685;53.104;8.228;2023-03-04T07:30:10;5.60;99.90
3344;DHT22;1685;53.104;8.228;2023-03-04T07:35:05;5.60;99.90
3344;DHT22;1685;53.104;8.228;2023-03-04T07:37:34;5.50;99.90
3344;DHT22;1685;53.104;8.228;2023-03-04T07:40:00;5.30;99.90
3344;DHT22;1685;53.104;8.228;2023-03-04T07:42:27;5.60;99.90
3344;DHT22;1685;53.104;8.228;2023-03-04T07:44:54;5.50;99.90
3344;DHT22;1685;53.104;8.228;2023-03-04T07:49:47;5.50;99.90
3344;DHT22;1685;53.104;8.228;2023-03-04T07:54:42;5.60;99.90
3344;DHT22;1685;53.104;8.228;2023-03-04T07:57:09;5.50;99.90
3344;DHT22;1685;53.104;8.228;2023-03-04T07:59:36;5.60;99.90
3344;DHT22;1685;53.104;8.228;2023-03-04T08:09:24;5.60;99.90
3344;DHT22;1685;53.104;8.228;2023-03-04T08:11:52;5.70;99.90
3344;DHT22;1685;53.104;8.228;2023-03-04T08:14:19;5.70;99.90
3344;DHT22;1685;53.104;8.228;2023-03-04T08:19:13;5.60;99.90
3344;DHT22;1685;53.104;8.228;2023-03-04T08:21:40;5.60;99.90
3344;DHT22;1685;53.104;8.228;2023-03-04T08:24:07;5.60;99.90
3344;DHT22;1685;53.104;8.228;2023-03-04T08:26:35;5.70;99.90
3344;DHT22;1685;53.104;8.228;2023-03-04T08:29:08;5.70;99.90
3344;DHT22;1685;53.104;8.228;2023-03-04T08:31:35;5.70;99.90
3344;DHT22;1685;53.104;8.228;2023-03-04T08:34:04;5.90;99.90
3344;DHT22;1685;53.104;8.228;2023-03-04T08:36:32;5.80;99.90
3344;DHT22;1685;53.104;8.228;2023-03-04T08:41:25;6.00;99.90
3344;DHT22;1685;53.104;8.228;2023-03-04T08:43:52;5.80;99.90
3344;DHT22;1685;53.104;8.228;2023-03-04T08:46:20;5.80;99.90
3344;DHT22;1685;53.104;8.228;2023-03-04T08:53:42;5.80;99.90
3344;DHT22;1685;53.104;8.228;2023-03-04T09:01:06;6.10;99.90
3344;DHT22;1685;53.104;8.228;2023-03-04T09:03:35;6.20;99.90
3344;DHT22;1685;53.104;8.228;2023-03-04T09:06:03;6.20;99.90
3344;DHT22;1685;53.104;8.228;2023-03-04T09:08:30;6.30;99.90
3344;DHT22;1685;53.104;8.228;2023-03-04T09:20:47;6.20;99.90
3344;DHT22;1685;53.104;8.228;2023-03-04T09:23:15;6.10;99.90
3344;DHT22;1685;53.104;8.228;2023-03-04T09:38:00;5.70;99.90
3344;DHT22;1685;53.104;8.228;2023-03-04T09:40:29;5.60;99.90
3344;DHT22;1685;53.104;8.228;2023-03-04T09:43:00;5.60;99.90
3344;DHT22;1685;53.104;8.228;2023-03-04T09:45:33;5.60;99.90
3344;DHT22;1685;53.104;8.228;2023-03-04T09:50:32;6.00;99.90
3344;DHT22;1685;53.104;8.228;2023-03-04T09:53:06;6.10;99.90
3344;DHT22;1685;53.104;8.228;2023-03-04T09:55:39;6.60;99.90
3344;DHT22;1685;53.104;8.228;2023-03-04T09:58:15;6.60;99.90
3344;DHT22;1685;53.104;8.228;2023-03-04T10:00:50;6.30;99.90
3344;DHT22;1685;53.104;8.228;2023-03-04T10:03:19;6.40;99.90
3344;DHT22;1685;53.104;8.228;2023-03-04T10:05:52;6.30;99.90
3344;DHT22;1685;53.104;8.228;2023-03-04T10:08:34;6.20;99.90
3344;DHT22;1685;53.104;8.228;2023-03-04T10:11:04;6.20;99.90
3344;DHT22;1685;53.104;8.228;2023-03-04T10:13:36;6.00;99.90
3344;DHT22;1685;53.104;8.228;2023-03-04T10:16:07;5.80;99.90
3344;DHT22;1685;53.104;8.228;2023-03-04T10:18:36;5.70;99.90
3344;DHT22;1685;53.104;8.228;2023-03-04T10:21:11;5.80;99.90
3344;DHT22;1685;53.104;8.228;2023-03-04T10:23:43;5.70;99.90
3344;DHT22;1685;53.104;8.228;2023-03-04T10:26:12;5.70;99.90
3344;DHT22;1685;53.104;8.228;2023-03-04T10:31:11;5.90;99.90
3344;DHT22;1685;53.104;8.228;2023-03-04T10:36:22;6.10;99.90
3344;DHT22;1685;53.104;8.228;2023-03-04T10:38:56;6.20;99.90
3344;DHT22;1685;53.104;8.228;2023-03-04T10:41:26;6.30;99.90
3344;DHT22;1685;53.104;8.228;2023-03-04T10:44:01;6.40;99.90
3344;DHT22;1685;53.104;8.228;2023-03-04T10:51:23;6.70;99.90
3344;DHT22;1685;53.104;8.228;2023-03-04T10:53:56;6.70;99.90
3344;DHT22;1685;53.104;8.228;2023-03-04T10:56:31;6.60;99.90
3344;DHT22;1685;53.104;8.228;2023-03-04T10:59:24;6.50;99.90
3344;DHT22;1685;53.104;8.228;2023-03-04T11:04:23;6.70;99.90
3344;DHT22;1685;53.104;8.228;2023-03-04T11:09:23;6.60;99.90
3344;DHT22;1685;53.104;8.228;2023-03-04T11:11:52;6.20;99.90
3344;DHT22;1685;53.104;8.228;2023-03-04T11:14:22;5.50;99.90
3344;DHT22;1685;53.104;8.228;2023-03-04T11:16:54;5.40;99.90
3344;DHT22;1685;53.104;8.228;2023-03-04T11:19:23;5.40;99.90
3344;DHT22;1685;53.104;8.228;2023-03-04T11:21:51;5.50;99.90
3344;DHT22;1685;53.104;8.228;2023-03-04T11:24:23;5.70;99.90
3344;DHT22;1685;53.104;8.228;2023-03-04T11:26:54;5.60;99.90
3344;DHT22;1685;53.104;8.228;2023-03-04T11:29:24;6.00;99.90
3344;DHT22;1685;53.104;8.228;2023-03-04T11:31:55;6.20;99.90
3344;DHT22;1685;53.104;8.228;2023-03-04T11:34:31;6.30;99.90
3344;DHT22;1685;53.104;8.228;2023-03-04T11:37:01;6.30;99.90
3344;DHT22;1685;53.104;8.228;2023-03-04T11:39:34;6.40;99.90
3344;DHT22;1685;53.104;8.228;2023-03-04T11:42:10;6.30;99.90
3344;DHT22;1685;53.104;8.228;2023-03-04T11:47:21;6.50;99.90
3344;DHT22;1685;53.104;8.228;2023-03-04T11:53:11;6.70;99.90
3344;DHT22;1685;53.104;8.228;2023-03-04T11:55:48;6.90;99.90
3344;DHT22;1685;53.104;8.228;2023-03-04T11:58:38;7.00;99.90
3344;DHT22;1685;53.104;8.228;2023-03-04T12:01:08;6.70;99.90
3344;DHT22;1685;53.104;8.228;2023-03-04T12:03:57;6.80;99.90
3344;DHT22;1685;53.104;8.228;2023-03-04T12:06:34;6.80;99.90
3344;DHT22;1685;53.104;8.228;2023-03-04T12:09:17;7.10;99.90
3344;DHT22;1685;53.104;8.228;2023-03-04T12:11:54;6.90;99.90
3344;DHT22;1685;53.104;8.228;2023-03-04T12:14:30;6.90;99.90
3344;DHT22;1685;53.104;8.228;2023-03-04T12:17:30;7.00;99.90
3344;DHT22;1685;53.104;8.228;2023-03-04T12:20:16;6.90;99.90
3344;DHT22;1685;53.104;8.228;2023-03-04T12:22:51;6.80;99.90
3344;DHT22;1685;53.104;8.228;2023-03-04T12:25:38;6.80;99.90
3344;DHT22;1685;53.104;8.228;2023-03-04T12:28:32;6.60;99.90
3344;DHT22;1685;53.104;8.228;2023-03-04T12:31:17;6.40;99.90
3344;DHT22;1685;53.104;8.228;2023-03-04T12:33:57;6.20;99.90
3344;DHT22;1685;53.104;8.228;2023-03-04T12:36:36;6.10;99.90
3344;DHT22;1685;53.104;8.228;2023-03-04T12:39:18;6.00;99.90
3344;DHT22;1685;53.104;8.228;2023-03-04T12:41:51;6.10;99.90
3344;DHT22;1685;53.104;8.228;2023-03-04T12:44:24;6.20;99.90
3344;DHT22;1685;53.104;8.228;2023-03-04T12:47:08;6.40;99.90
3344;DHT22;1685;53.104;8.228;2023-03-04T12:49:48;6.30;99.90
3344;DHT22;1685;53.104;8.228;2023-03-04T12:52:23;6.40;99.90
3344;DHT22;1685;53.104;8.228;2023-03-04T12:54:54;6.70;99.90
3344;DHT22;1685;53.104;8.228;2023-03-04T12:57:23;6.80;99.90
3344;DHT22;1685;53.104;8.228;2023-03-04T12:59:57;6.90;99.90
3344;DHT22;1685;53.104;8.228;2023-03-04T13:02:41;6.70;99.90
3344;DHT22;1685;53.104;8.228;2023-03-04T13:05:28;6.60;99.90
3344;DHT22;1685;53.104;8.228;2023-03-04T13:08:02;6.50;99.90
3344;DHT22;1685;53.104;8.228;2023-03-04T13:13:02;6.60;99.90
3344;DHT22;1685;53.104;8.228;2023-03-04T13:15:33;6.40;99.90
3344;DHT22;1685;53.104;8.228;2023-03-04T13:18:03;6.50;99.90
3344;DHT22;1685;53.104;8.228;2023-03-04T13:20:36;6.40;99.90
3344;DHT22;1685;53.104;8.228;2023-03-04T13:23:17;6.80;99.90
3344;DHT22;1685;53.104;8.228;2023-03-04T13:28:25;6.00;99.90
3344;DHT22;1685;53.104;8.228;2023-03-04T13:31:16;6.00;99.90
3344;DHT22;1685;53.104;8.228;2023-03-04T13:33:52;6.00;99.90
3344;DHT22;1685;53.104;8.228;2023-03-04T13:39:32;6.10;99.90
3344;DHT22;1685;53.104;8.228;2023-03-04T13:47:39;6.40;99.90
3344;DHT22;1685;53.104;8.228;2023-03-04T13:50:26;6.30;99.90
3344;DHT22;1685;53.104;8.228;2023-03-04T13:53:00;6.20;99.90
3344;DHT22;1685;53.104;8.228;2023-03-04T13:55:33;6.30;99.90
3344;DHT22;1685;53.104;8.228;2023-03-04T13:58:01;6.30;99.90
3344;DHT22;1685;53.104;8.228;2023-03-04T14:00:28;6.20;99.90
3344;DHT22;1685;53.104;8.228;2023-03-04T14:03:11;6.30;99.90
3344;DHT22;1685;53.104;8.228;2023-03-04T14:08:17;6.30;99.90
3344;DHT22;1685;53.104;8.228;2023-03-04T14:20:35;6.40;99.90
3344;DHT22;1685;53.104;8.228;2023-03-04T14:23:06;6.30;99.90
3344;DHT22;1685;53.104;8.228;2023-03-04T14:28:16;6.20;99.90
3344;DHT22;1685;53.104;8.228;2023-03-04T14:30:50;6.00;99.90
3344;DHT22;1685;53.104;8.228;2023-03-04T14:33:20;6.00;99.90
3344;DHT22;1685;53.104;8.228;2023-03-04T14:35:50;5.90;99.90
3344;DHT22;1685;53.104;8.228;2023-03-04T14:38:22;5.60;99.90
3344;DHT22;1685;53.104;8.228;2023-03-04T14:40:52;5.50;99.90
3344;DHT22;1685;53.104;8.228;2023-03-04T14:43:20;5.50;99.90
3344;DHT22;1685;53.104;8.228;2023-03-04T14:45:49;5.50;99.90
3344;DHT22;1685;53.104;8.228;2023-03-04T14:48:21;5.60;99.90
3344;DHT22;1685;53.104;8.228;2023-03-04T14:50:50;5.70;99.90
3344;DHT22;1685;53.104;8.228;2023-03-04T14:53:19;5.60;99.90
3344;DHT22;1685;53.104;8.228;2023-03-04T14:55:57;5.60;99.90
3344;DHT22;1685;53.104;8.228;2023-03-04T14:58:26;5.60;99.90
3344;DHT22;1685;53.104;8.228;2023-03-04T15:01:12;5.80;99.90
3344;DHT22;1685;53.104;8.228;2023-03-04T15:03:41;5.70;99.90
3344;DHT22;1685;53.104;8.228;2023-03-04T15:06:17;6.00;99.90
3344;DHT22;1685;53.104;8.228;2023-03-04T15:11:20;5.70;99.90
3344;DHT22;1685;53.104;8.228;2023-03-04T15:13:48;5.70;99.90
3344;DHT22;1685;53.104;8.228;2023-03-04T15:16:17;5.70;99.90
3344;DHT22;1685;53.104;8.228;2023-03-04T15:18:53;5.60;99.90
3344;DHT22;1685;53.104;8.228;2023-03-04T15:21:35;5.60;99.90
3344;DHT22;1685;53.104;8.228;2023-03-04T15:24:03;5.70;99.90
3344;DHT22;1685;53.104;8.228;2023-03-04T15:26:32;5.70;99.90
3344;DHT22;1685;53.104;8.228;2023-03-04T15:31:28;5.60;99.90
3344;DHT22;1685;53.104;8.228;2023-03-04T15:36:22;5.60;99.90
3344;DHT22;1685;53.104;8.228;2023-03-04T15:38:51;5.60;99.90
3344;DHT22;1685;53.104;8.228;2023-03-04T15:41:22;5.80;99.90
3344;DHT22;1685;53.104;8.228;2023-03-04T15:43:49;5.70;99.90
3344;DHT22;1685;53.104;8.228;2023-03-04T15:51:13;5.60;99.90
3344;DHT22;1685;53.104;8.228;2023-03-04T15:53:43;5.60;99.90
3344;DHT22;1685;53.104;8.228;2023-03-04T15:56:14;5.90;99.90
3344;DHT22;1685;53.104;8.228;2023-03-04T15:58:42;5.60;99.90
3344;DHT22;1685;53.104;8.228;2023-03-04T16:01:14;5.70;99.90
3344;DHT22;1685;53.104;8.228;2023-03-04T16:06:09;5.60;99.90
3344;DHT22;1685;53.104;8.228;2023-03-04T16:13:33;5.40;99.90
3344;DHT22;1685;53.104;8.228;2023-03-04T16:23:22;4.50;99.90
3344;DHT22;1685;53.104;8.228;2023-03-04T16:25:52;4.70;99.90
3344;DHT22;1685;53.104;8.228;2023-03-04T16:30:48;4.50;99.90
3344;DHT22;1685;53.104;8.228;2023-03-04T16:35:43;4.50;99.90
3344;DHT22;1685;53.104;8.228;2023-03-04T16:38:20;4.40;99.90
3344;DHT22;1685;53.104;8.228;2023-03-04T16:45:44;4.40;99.90
3344;DHT22;1685;53.104;8.228;2023-03-04T16:48:12;4.40;99.90
3344;DHT22;1685;53.104;8.228;2023-03-04T16:53:20;4.40;99.90
3344;DHT22;1685;53.104;8.228;2023-03-04T16:55:49;4.20;99.90
3344;DHT22;1685;53.104;8.228;2023-03-04T17:05:38;4.50;99.90
3344;DHT22;1685;53.104;8.228;2023-03-04T17:22:49;4.50;99.90
3344;DHT22;1685;53.104;8.228;2023-03-04T17:25:15;4.40;99.90
3344;DHT22;1685;53.104;8.228;2023-03-04T17:30:11;4.50;99.90
3344;DHT22;1685;53.104;8.228;2023-03-04T17:35:07;4.10;99.90
3344;DHT22;1685;53.104;8.228;2023-03-04T17:40:04;4.10;99.90
3344;DHT22;1685;53.104;8.228;2023-03-04T17:57:15;4.00;99.90
3344;DHT22;1685;53.104;8.228;2023-03-04T18:02:13;3.90;99.90
3344;DHT22;1685;53.104;8.228;2023-03-04T18:31:39;3.90;99.90
3344;DHT22;1685;53.104;8.228;2023-03-04T18:46:28;3.70;99.90
3344;DHT22;1685;53.104;8.228;2023-03-04T18:49:01;3.70;99.90
3344;DHT22;1685;53.104;8.228;2023-03-04T18:56:25;3.70;99.90
3344;DHT22;1685;53.104;8.228;2023-03-04T18:58:57;3.70;99.90
3344;DHT22;1685;53.104;8.228;2023-03-04T19:06:21;3.70;99.90
3344;DHT22;1685;53.104;8.228;2023-03-04T19:31:03;3.70;99.90
3344;DHT22;1685;53.104;8.228;2023-03-04T19:36:00;3.60;99.90
3344;DHT22;1685;53.104;8.228;2023-03-04T19:40:55;3.60;99.90
3344;DHT22;1685;53.104;8.228;2023-03-04T19:45:52;3.50;99.90
3344;DHT22;1685;53.104;8.228;2023-03-04T19:58:11;3.50;99.90
3344;DHT22;1685;53.104;8.228;2023-03-04T20:10:30;3.50;99.90
3344;DHT22;1685;53.104;8.228;2023-03-04T20:12:57;3.50;99.90
3344;DHT22;1685;53.104;8.228;2023-03-04T20:15:25;3.50;99.90
3344;DHT22;1685;53.104;8.228;2023-03-04T20:30:08;3.30;99.90
3344;DHT22;1685;53.104;8.228;2023-03-04T20:32:37;3.30;99.90
3344;DHT22;1685;53.104;8.228;2023-03-04T20:59:38;3.40;99.90
3344;DHT22;1685;53.104;8.228;2023-03-04T21:02:07;3.40;99.90
3344;DHT22;1685;53.104;8.228;2023-03-04T21:07:02;3.30;99.90
3344;DHT22;1685;53.104;8.228;2023-03-04T21:14:25;3.30;99.90
3344;DHT22;1685;53.104;8.228;2023-03-04T21:16:53;3.30;99.90
3344;DHT22;1685;53.104;8.228;2023-03-04T21:19:22;3.30;99.90
3344;DHT22;1685;53.104;8.228;2023-03-04T21:21:50;3.20;99.90
3344;DHT22;1685;53.104;8.228;2023-03-04T21:24:20;3.30;99.90
3344;DHT22;1685;53.104;8.228;2023-03-04T21:29:16;3.20;99.90
3344;DHT22;1685;53.104;8.228;2023-03-04T21:31:44;3.20;99.90
3344;DHT22;1685;53.104;8.228;2023-03-04T21:34:16;3.20;99.90
3344;DHT22;1685;53.104;8.228;2023-03-04T21:39:14;3.30;99.90
3344;DHT22;1685;53.104;8.228;2023-03-04T21:41:43;3.30;99.90
3344;DHT22;1685;53.104;8.228;2023-03-04T21:49:05;3.20;99.90
3344;DHT22;1685;53.104;8.228;2023-03-04T21:58:57;3.30;99.90
3344;DHT22;1685;53.104;8.228;2023-03-04T22:06:19;3.30;99.90
3344;DHT22;1685;53.104;8.228;2023-03-04T22:16:11;3.30;99.90
3344;DHT22;1685;53.104;8.228;2023-03-04T22:21:08;3.30;99.90
3344;DHT22;1685;53.104;8.228;2023-03-04T22:26:03;3.30;99.90
3344;DHT22;1685;53.104;8.228;2023-03-04T22:33:27;3.30;99.90
3344;DHT22;1685;53.104;8.228;2023-03-04T22:50:40;3.30;99.90
3344;DHT22;1685;53.104;8.228;2023-03-04T23:00:30;3.30;99.90
3344;DHT22;1685;53.104;8.228;2023-03-04T23:07:53;3.20;99.90
3344;DHT22;1685;53.104;8.228;2023-03-04T23:10:21;3.30;99.90
3344;DHT22;1685;53.104;8.228;2023-03-04T23:15:17;3.20;99.90
3344;DHT22;1685;53.104;8.228;2023-03-04T23:20:13;3.00;99.90
3344;DHT22;1685;53.104;8.228;2023-03-04T23:25:09;3.10;99.90
3344;DHT22;1685;53.104;8.228;2023-03-04T23:42:21;3.20;99.90
3344;DHT22;1685;53.104;8.228;2023-03-04T23:59:31;3.10;99.90
